Time;durP1;ratioP1;P1;durP2;ratioP2;P2;SDS_P1;SDS_P2;PMS_P1;PMS_P2;Temp;Humidity;BMP_temperature;BMP_pressure;BME280_temperature;BME280_humidity;BME280_pressure;Samples;Min_cycle;Max_cycle;Signal;HPM_P1;HPM_P2
2022/05/13 00:01:58;;;;;;;4.40;3.65;;;9.60;99.90;;;;;;5030597;28;20501;-64
2022/05/13 00:04:24;;;;;;;6.15;3.47;;;9.60;99.90;;;;;;5024012;28;20065;-63
2022/05/13 00:06:49;;;;;;;5.65;3.65;;;9.60;99.90;;;;;;5029492;28;20137;-65
2022/05/13 00:09:15;;;;;;;5.20;3.28;;;9.60;99.90;;;;;;5041137;28;20159;-63
2022/05/13 00:11:41;;;;;;;5.50;3.38;;;9.60;99.90;;;;;;5028525;28;20049;-63
2022/05/13 00:14:08;;;;;;;5.20;3.65;;;9.60;99.90;;;;;;5026462;28;20425;-63
2022/05/13 00:16:35;;;;;;;6.95;3.30;;;9.70;99.90;;;;;;5029248;28;20060;-63
2022/05/13 00:19:03;;;;;;;5.85;3.50;;;9.70;99.90;;;;;;5028251;28;20355;-63
2022/05/13 00:21:29;;;;;;;4.55;3.35;;;9.70;99.90;;;;;;5031106;28;20041;-63
2022/05/13 00:23:55;;;;;;;8.18;3.55;;;9.70;99.90;;;;;;5026118;28;20552;-65
2022/05/13 00:26:20;;;;;;;6.55;3.45;;;9.70;99.90;;;;;;5031849;28;20081;-64
2022/05/13 00:28:46;;;;;;;4.28;3.13;;;9.70;99.90;;;;;;5030577;28;20125;-63
2022/05/13 00:31:12;;;;;;;5.05;3.10;;;9.70;99.90;;;;;;5027851;28;20041;-64
2022/05/13 00:33:38;;;;;;;4.75;3.25;;;9.80;99.90;;;;;;5027190;28;20111;-63
2022/05/13 00:36:04;;;;;;;7.05;3.53;;;9.80;99.90;;;;;;5031515;28;20088;-63
2022/05/13 00:38:30;;;;;;;5.65;3.28;;;9.90;99.90;;;;;;5033543;28;20086;-64
2022/05/13 00:40:56;;;;;;;9.43;3.58;;;9.90;99.90;;;;;;5033275;28;20054;-63
2022/05/13 00:43:40;;;;;;;5.78;3.33;;;9.90;99.90;;;;;;5030983;28;20053;-63
2022/05/13 00:46:06;;;;;;;5.72;3.20;;;10.00;99.90;;;;;;5031422;28;20402;-63
2022/05/13 00:48:31;;;;;;;4.40;3.30;;;10.10;99.90;;;;;;5030625;28;20046;-63
2022/05/13 00:50:57;;;;;;;5.45;2.72;;;10.10;99.90;;;;;;5031432;28;20111;-64
2022/05/13 00:53:24;;;;;;;4.18;3.03;;;10.20;99.90;;;;;;5032957;28;20049;-64
2022/05/13 00:55:51;;;;;;;6.13;3.20;;;10.20;99.90;;;;;;5033097;28;20068;-63
2022/05/13 00:58:19;;;;;;;7.07;2.97;;;10.30;99.90;;;;;;5030389;28;20067;-63
2022/05/13 01:00:46;;;;;;;7.50;3.05;;;10.40;99.90;;;;;;5034964;28;20041;-63
2022/05/13 01:03:13;;;;;;;5.22;3.20;;;10.40;99.90;;;;;;5031066;28;20103;-63
2022/05/13 01:05:45;;;;;;;8.65;3.55;;;10.40;99.90;;;;;;5032957;28;20106;-63
2022/05/13 01:08:11;;;;;;;9.05;3.22;;;10.50;99.90;;;;;;5031590;28;20088;-63
2022/05/13 01:10:39;;;;;;;6.18;2.80;;;10.60;99.90;;;;;;5035413;28;20065;-63
2022/05/13 01:13:08;;;;;;;4.90;2.47;;;10.60;99.90;;;;;;5032573;28;20064;-62
2022/05/13 01:15:40;;;;;;;6.75;2.95;;;10.70;99.90;;;;;;5033097;28;20073;-64
2022/05/13 01:18:06;;;;;;;6.10;3.63;;;10.70;99.90;;;;;;5032037;28;20058;-65
2022/05/13 01:20:36;;;;;;;7.57;3.70;;;10.70;99.90;;;;;;5032882;28;20140;-63
2022/05/13 01:23:12;;;;;;;6.10;3.00;;;10.70;99.90;;;;;;5032720;28;20057;-63
2022/05/13 01:25:44;;;;;;;5.43;2.90;;;10.70;99.90;;;;;;5032675;28;20065;-64
2022/05/13 01:28:11;;;;;;;;;;;10.70;99.90;;;;;;5033586;28;20041;-65
2022/05/13 01:30:42;;;;;;;6.80;3.28;;;10.70;99.90;;;;;;5032333;28;19929;-64
2022/05/13 01:33:08;;;;;;;5.60;3.33;;;10.70;99.90;;;;;;5033569;28;20060;-63
2022/05/13 01:35:36;;;;;;;6.72;2.85;;;10.70;99.90;;;;;;5028506;28;20049;-63
2022/05/13 01:38:01;;;;;;;7.53;3.85;;;10.80;99.90;;;;;;5029779;28;20370;-62
2022/05/13 01:40:27;;;;;;;5.05;3.00;;;10.80;99.90;;;;;;5031524;28;20049;-62
2022/05/13 01:42:52;;;;;;;5.47;3.20;;;10.80;99.90;;;;;;5032619;28;20041;-63
2022/05/13 01:45:18;;;;;;;7.45;3.10;;;10.80;99.90;;;;;;5031934;28;20049;-63
2022/05/13 01:47:44;;;;;;;8.25;3.42;;;10.80;99.90;;;;;;5028555;28;20049;-65
2022/05/13 01:50:10;;;;;;;6.40;2.75;;;10.90;99.90;;;;;;5033130;28;20161;-63
2022/05/13 01:52:36;;;;;;;9.00;3.17;;;10.90;99.90;;;;;;5032270;28;20049;-63
2022/05/13 01:55:01;;;;;;;6.00;2.75;;;10.90;99.90;;;;;;5032756;28;20044;-63
2022/05/13 01:57:27;;;;;;;7.47;3.00;;;10.90;99.90;;;;;;5029317;28;21749;-63
2022/05/13 01:59:53;;;;;;;6.00;2.58;;;10.90;99.90;;;;;;5032306;28;20242;-63
2022/05/13 02:02:18;;;;;;;7.47;2.50;;;11.00;99.90;;;;;;5031326;28;20061;-63
2022/05/13 02:04:44;;;;;;;6.85;3.17;;;11.00;99.90;;;;;;5032400;28;20521;-64
2022/05/13 02:07:10;;;;;;;7.70;2.65;;;11.00;99.90;;;;;;5030812;28;20075;-63
2022/05/13 02:09:35;;;;;;;5.68;2.80;;;11.00;99.90;;;;;;5032779;28;20056;-62
2022/05/13 02:12:01;;;;;;;3.90;2.63;;;11.00;99.90;;;;;;5031522;28;20049;-62
2022/05/13 02:14:26;;;;;;;5.20;2.50;;;11.00;99.90;;;;;;5031959;28;20472;-63
2022/05/13 02:16:52;;;;;;;4.85;2.85;;;11.00;99.90;;;;;;5031346;28;20099;-62
2022/05/13 02:19:18;;;;;;;6.57;2.55;;;11.00;99.90;;;;;;5032323;28;20050;-64
2022/05/13 02:21:44;;;;;;;4.07;2.47;;;11.00;99.90;;;;;;5031823;28;20049;-63
2022/05/13 02:24:10;;;;;;;6.45;2.38;;;11.00;99.90;;;;;;5014314;28;20091;-62
2022/05/13 02:26:35;;;;;;;3.85;2.55;;;11.00;99.90;;;;;;5021414;28;20057;-62
2022/05/13 02:29:02;;;;;;;9.80;3.22;;;11.00;99.90;;;;;;5030808;28;20056;-62
2022/05/13 02:31:29;;;;;;;8.27;2.65;;;11.00;99.90;;;;;;5029582;28;20722;-63
2022/05/13 02:33:55;;;;;;;8.38;3.05;;;11.00;99.90;;;;;;5032094;28;20057;-64
2022/05/13 02:36:20;;;;;;;6.95;3.53;;;11.00;99.90;;;;;;5026563;28;20052;-62
2022/05/13 02:38:46;;;;;;;7.80;3.10;;;11.00;99.90;;;;;;5030904;28;20056;-64
2022/05/13 02:41:12;;;;;;;6.53;2.97;;;11.00;99.90;;;;;;5029618;28;20050;-62
2022/05/13 02:43:39;;;;;;;5.80;3.08;;;10.90;99.90;;;;;;5031793;28;20049;-62
2022/05/13 02:46:05;;;;;;;4.82;2.55;;;11.00;99.90;;;;;;5030458;28;20057;-63
2022/05/13 02:48:31;;;;;;;6.35;3.58;;;10.90;99.90;;;;;;5031366;28;20092;-63
2022/05/13 02:50:56;;;;;;;6.32;3.03;;;10.90;99.90;;;;;;5030812;28;20401;-62
2022/05/13 02:53:23;;;;;;;7.50;3.15;;;10.90;99.90;;;;;;5030746;28;20049;-64
2022/05/13 02:55:49;;;;;;;5.90;3.28;;;10.90;99.90;;;;;;5030369;28;20136;-64
2022/05/13 02:58:14;;;;;;;7.18;3.05;;;10.80;99.90;;;;;;5030479;28;20133;-62
2022/05/13 03:00:40;;;;;;;10.00;4.13;;;10.90;99.90;;;;;;5031096;28;20390;-63
2022/05/13 03:03:06;;;;;;;7.72;3.65;;;10.80;99.90;;;;;;5029019;28;20041;-62
2022/05/13 03:05:32;;;;;;;5.53;3.10;;;10.80;99.90;;;;;;5031663;28;20107;-62
2022/05/13 03:08:01;;;;;;;8.65;3.33;;;10.80;99.90;;;;;;5030965;28;20045;-62
2022/05/13 03:10:27;;;;;;;6.15;3.17;;;10.80;99.90;;;;;;5031739;28;20049;-62
2022/05/13 03:12:53;;;;;;;7.18;2.95;;;10.80;99.90;;;;;;5030006;28;20049;-62
2022/05/13 03:15:18;;;;;;;5.88;2.80;;;10.80;99.90;;;;;;5031151;28;20049;-63
2022/05/13 03:17:44;;;;;;;5.85;2.70;;;10.80;99.90;;;;;;5030078;28;20497;-62
2022/05/13 03:20:17;;;;;;;6.70;3.05;;;10.80;99.90;;;;;;5031335;28;20057;-64
2022/05/13 03:22:46;;;;;;;5.95;2.95;;;10.80;99.90;;;;;;5031556;28;20045;-62
2022/05/13 03:25:12;;;;;;;7.57;3.28;;;10.80;99.90;;;;;;5030447;28;20054;-63
2022/05/13 03:27:38;;;;;;;5.88;2.60;;;10.80;99.90;;;;;;5030961;28;20506;-62
2022/05/13 03:30:05;;;;;;;4.57;3.00;;;10.80;99.90;;;;;;5029455;28;20060;-63
2022/05/13 03:32:30;;;;;;;6.45;2.92;;;10.70;99.90;;;;;;5025039;28;20058;-63
2022/05/13 03:34:56;;;;;;;8.88;3.53;;;10.70;99.90;;;;;;5027028;28;20050;-63
2022/05/13 03:37:22;;;;;;;7.03;2.95;;;10.70;99.90;;;;;;5032362;28;20045;-62
2022/05/13 03:39:47;;;;;;;6.18;2.90;;;10.70;99.90;;;;;;5028712;28;20095;-62
2022/05/13 03:42:13;;;;;;;5.35;3.00;;;10.80;99.90;;;;;;5028128;28;20464;-62
2022/05/13 03:44:39;;;;;;;8.35;3.20;;;10.80;99.90;;;;;;5031659;28;20057;-64
2022/05/13 03:47:05;;;;;;;6.63;3.00;;;10.80;99.90;;;;;;5030097;28;20132;-63
2022/05/13 03:49:31;;;;;;;6.28;2.50;;;10.70;99.90;;;;;;5031103;28;20401;-63
2022/05/13 03:51:57;;;;;;;8.80;3.33;;;10.80;99.90;;;;;;5029313;28;20053;-63
2022/05/13 03:54:23;;;;;;;7.13;2.80;;;10.80;99.90;;;;;;5029446;28;20053;-63
2022/05/13 03:56:48;;;;;;;12.55;3.75;;;10.80;99.90;;;;;;5028766;28;20399;-63
2022/05/13 03:59:14;;;;;;;9.35;3.20;;;10.80;99.90;;;;;;5030094;28;20073;-63
2022/05/13 04:01:40;;;;;;;8.15;3.30;;;10.80;99.90;;;;;;5027604;28;20255;-63
2022/05/13 04:04:05;;;;;;;14.05;3.83;;;10.80;99.90;;;;;;5028331;28;20504;-64
2022/05/13 04:09:15;;;;;;;7.20;3.05;;;10.90;99.90;;;;;;5031325;28;20061;-63
2022/05/13 04:16:04;;;;;;;9.48;3.42;;;10.90;99.90;;;;;;5032849;28;20049;-62
2022/05/13 04:17:12;;;;;;;8.65;3.17;;;10.90;99.90;;;;;;5031820;28;20045;-65
2022/05/13 04:19:38;;;;;;;6.75;3.40;;;10.90;99.90;;;;;;5031857;28;20140;-63
2022/05/13 04:22:03;;;;;;;5.65;2.60;;;11.00;99.90;;;;;;5033280;28;20049;-62
2022/05/13 04:24:29;;;;;;;12.57;3.60;;;10.90;99.90;;;;;;5033215;28;20077;-62
2022/05/13 04:26:55;;;;;;;9.18;3.22;;;10.90;99.90;;;;;;5033946;28;20424;-63
2022/05/13 04:29:21;;;;;;;11.32;3.50;;;11.00;99.90;;;;;;5034455;28;20045;-62
2022/05/13 04:31:46;;;;;;;5.57;2.53;;;11.00;99.90;;;;;;5031623;28;20421;-63
2022/05/13 04:34:12;;;;;;;9.23;3.33;;;11.00;99.90;;;;;;5032206;28;20551;-63
2022/05/13 04:36:38;;;;;;;6.85;2.90;;;11.00;99.90;;;;;;5028997;28;20060;-63
2022/05/13 04:39:04;;;;;;;11.00;3.20;;;11.00;99.90;;;;;;5033644;28;20073;-63
2022/05/13 04:44:16;;;;;;;7.93;3.28;;;11.00;99.90;;;;;;5032856;28;20049;-63
2022/05/13 04:46:42;;;;;;;9.20;3.75;;;11.00;99.90;;;;;;5030846;28;20053;-64
2022/05/13 04:49:08;;;;;;;8.48;3.30;;;11.00;99.90;;;;;;5033518;28;20064;-63
2022/05/13 04:51:34;;;;;;;12.35;3.00;;;11.00;99.90;;;;;;5030012;28;20060;-63
2022/05/13 04:54:00;;;;;;;7.88;3.33;;;11.00;99.90;;;;;;5033679;28;20053;-63
2022/05/13 04:56:27;;;;;;;10.50;3.30;;;11.00;99.90;;;;;;5033717;28;20053;-64
2022/05/13 04:58:52;;;;;;;8.15;3.13;;;11.00;99.90;;;;;;5030747;28;20057;-64
2022/05/13 05:01:20;;;;;;;9.98;3.15;;;11.10;99.90;;;;;;5028860;28;20058;-62
2022/05/13 05:03:46;;;;;;;8.93;3.33;;;11.10;99.90;;;;;;5034020;28;20045;-63
2022/05/13 05:06:13;;;;;;;9.80;3.38;;;11.10;99.90;;;;;;5033036;28;20482;-62
2022/05/13 05:08:40;;;;;;;12.23;3.80;;;11.10;99.90;;;;;;5030707;28;20069;-63
2022/05/13 05:11:08;;;;;;;12.45;3.80;;;11.10;99.90;;;;;;5033339;28;20128;-63
2022/05/13 05:13:38;;;;;;;10.40;3.33;;;11.20;99.90;;;;;;5034269;28;20156;-63
2022/05/13 05:16:07;;;;;;;8.77;3.00;;;11.20;99.90;;;;;;5031994;28;20057;-63
2022/05/13 05:18:36;;;;;;;13.52;3.97;;;11.20;99.90;;;;;;5013745;28;20045;-63
2022/05/13 05:21:03;;;;;;;11.23;3.97;;;11.30;99.90;;;;;;5031305;28;20068;-63
2022/05/13 05:23:32;;;;;;;12.80;3.95;;;11.30;99.90;;;;;;5033451;28;20061;-64
2022/05/13 05:25:58;;;;;;;10.38;3.28;;;11.30;99.90;;;;;;5033381;28;20120;-64
2022/05/13 05:28:26;;;;;;;9.48;3.20;;;11.30;99.90;;;;;;5030899;28;20473;-63
2022/05/13 05:30:51;;;;;;;12.40;3.97;;;11.50;99.90;;;;;;5032394;28;20118;-64
2022/05/13 05:33:17;;;;;;;18.63;4.68;;;11.50;99.90;;;;;;5030774;28;20478;-63
2022/05/13 05:35:43;;;;;;;11.60;3.75;;;11.50;99.90;;;;;;5026591;28;20087;-63
2022/05/13 05:38:09;;;;;;;16.02;4.00;;;11.60;99.90;;;;;;5030806;28;20076;-64
2022/05/13 05:40:37;;;;;;;11.82;3.92;;;11.60;99.90;;;;;;5032851;28;20060;-64
2022/05/13 05:43:08;;;;;;;7.72;3.38;;;11.70;99.90;;;;;;5031986;28;20108;-65
2022/05/13 05:45:36;;;;;;;11.43;4.15;;;12.00;99.90;;;;;;5049081;28;20124;-65
2022/05/13 05:48:01;;;;;;;13.35;4.88;;;12.80;99.90;;;;;;5028336;28;20053;-63
2022/05/13 05:50:27;;;;;;;12.00;3.47;;;14.00;99.90;;;;;;5032888;28;20414;-62
2022/05/13 05:52:52;;;;;;;11.38;4.38;;;14.60;99.90;;;;;;5033811;28;20048;-63
2022/05/13 05:58:06;;;;;;;9.52;3.70;;;15.90;99.90;;;;;;5033317;28;20144;-64
2022/05/13 06:00:34;;;;;;;9.55;4.50;;;16.30;99.90;;;;;;5033369;28;20065;-64
2022/05/13 06:03:00;;;;;;;10.95;4.00;;;16.00;99.90;;;;;;5032882;28;20065;-64
2022/05/13 06:05:26;;;;;;;12.57;3.75;;;15.60;99.90;;;;;;5033110;28;20474;-64
2022/05/13 06:07:58;;;;;;;13.85;4.30;;;15.30;99.90;;;;;;5030876;28;20057;-64
2022/05/13 06:10:25;;;;;;;8.25;3.67;;;15.30;99.90;;;;;;5031847;28;20053;-62
2022/05/13 06:12:51;;;;;;;12.77;3.72;;;15.40;99.90;;;;;;5034294;28;20375;-63
2022/05/13 06:15:17;;;;;;;10.60;4.15;;;15.30;99.90;;;;;;5016325;28;20067;-64
2022/05/13 06:17:44;;;;;;;13.80;4.07;;;15.20;99.90;;;;;;5033772;28;20063;-63
2022/05/13 06:20:10;;;;;;;11.23;3.65;;;15.20;99.90;;;;;;5033777;28;20436;-63
2022/05/13 06:22:36;;;;;;;12.38;3.70;;;15.00;99.90;;;;;;5032352;28;20060;-63
2022/05/13 06:25:03;;;;;;;9.10;3.53;;;14.90;99.90;;;;;;5032183;28;20124;-62
2022/05/13 06:27:29;;;;;;;8.88;3.55;;;14.80;99.90;;;;;;5013766;28;20049;-63
2022/05/13 06:29:54;;;;;;;11.15;3.80;;;14.70;99.90;;;;;;5032111;28;20049;-64
2022/05/13 06:32:20;;;;;;;10.38;3.70;;;14.60;99.90;;;;;;5032222;28;20064;-62
2022/05/13 06:34:45;;;;;;;11.57;3.88;;;14.50;99.90;;;;;;5031872;28;20052;-63
2022/05/13 06:37:11;;;;;;;9.85;3.03;;;14.40;99.90;;;;;;5030817;28;20045;-63
2022/05/13 06:39:37;;;;;;;7.78;3.00;;;14.30;99.90;;;;;;5032358;28;20086;-65
2022/05/13 06:42:03;;;;;;;10.55;3.53;;;14.30;99.90;;;;;;5032285;28;20065;-63
2022/05/13 06:44:28;;;;;;;11.43;2.88;;;14.20;99.90;;;;;;5031645;28;20137;-63
2022/05/13 06:46:54;;;;;;;8.30;3.17;;;14.30;99.90;;;;;;5028958;28;20118;-64
2022/05/13 06:49:19;;;;;;;7.57;3.03;;;14.50;99.90;;;;;;5030736;28;20053;-64
2022/05/13 06:51:45;;;;;;;12.40;3.15;;;14.50;99.90;;;;;;5031767;28;20100;-63
2022/05/13 06:54:12;;;;;;;8.85;2.85;;;14.50;99.90;;;;;;5028851;28;20068;-63
2022/05/13 06:56:41;;;;;;;6.05;2.65;;;14.50;99.90;;;;;;5031851;28;20176;-63
2022/05/13 06:59:08;;;;;;;6.80;2.75;;;14.50;99.90;;;;;;5031748;28;20045;-64
2022/05/13 07:01:37;;;;;;;7.22;2.40;;;14.50;99.90;;;;;;5031244;28;20049;-62
2022/05/13 07:04:04;;;;;;;5.53;2.15;;;14.50;99.90;;;;;;5032194;28;20419;-64
2022/05/13 07:06:30;;;;;;;6.03;2.08;;;14.60;99.90;;;;;;5031763;28;20091;-63
2022/05/13 07:08:56;;;;;;;5.65;1.80;;;14.70;99.90;;;;;;5030285;28;20045;-64
2022/05/13 07:11:22;;;;;;;5.72;1.67;;;14.70;99.90;;;;;;5031771;28;20049;-62
2022/05/13 07:13:48;;;;;;;3.97;1.60;;;14.80;99.90;;;;;;5032426;28;20425;-63
2022/05/13 07:16:13;;;;;;;4.10;1.60;;;14.80;99.90;;;;;;5031280;28;20053;-63
2022/05/13 07:18:40;;;;;;;4.15;1.90;;;14.80;99.90;;;;;;5029335;28;20049;-62
2022/05/13 07:21:06;;;;;;;4.50;1.80;;;14.80;99.90;;;;;;5031436;28;20069;-62
2022/05/13 07:23:32;;;;;;;7.93;2.53;;;14.80;99.90;;;;;;5031670;28;20120;-63
2022/05/13 07:25:58;;;;;;;6.28;1.80;;;14.70;99.90;;;;;;5031640;28;20065;-64
2022/05/13 07:28:26;;;;;;;2.97;1.80;;;14.80;99.90;;;;;;5030699;28;20049;-64
2022/05/13 07:30:53;;;;;;;4.88;1.75;;;14.90;99.90;;;;;;5030659;28;20120;-63
2022/05/13 07:33:19;;;;;;;3.33;1.88;;;15.00;99.90;;;;;;5031203;28;20124;-63
2022/05/13 07:35:45;;;;;;;6.18;2.00;;;15.10;99.90;;;;;;5032112;28;20119;-65
2022/05/13 07:38:11;;;;;;;3.55;1.70;;;15.10;99.90;;;;;;5031385;28;20497;-63
2022/05/13 07:43:20;;;;;;;7.53;2.33;;;14.90;99.90;;;;;;5032323;28;20057;-63
2022/05/13 07:45:46;;;;;;;6.50;1.92;;;14.90;99.90;;;;;;5030906;28;20474;-65
2022/05/13 07:48:11;;;;;;;5.82;1.80;;;15.00;99.90;;;;;;5031216;28;20053;-64
2022/05/13 07:50:37;;;;;;;4.30;1.67;;;15.30;99.90;;;;;;5031399;28;20060;-65
2022/05/13 07:53:03;;;;;;;3.20;1.60;;;15.50;99.90;;;;;;5032115;28;20049;-62
2022/05/13 07:55:30;;;;;;;9.68;2.25;;;15.60;99.90;;;;;;5032619;28;20247;-64
2022/05/13 07:57:55;;;;;;;5.30;1.83;;;15.70;99.90;;;;;;5032326;28;20057;-66
2022/05/13 08:00:25;;;;;;;5.45;1.85;;;15.80;99.90;;;;;;5030582;28;20045;-65
2022/05/13 08:03:03;;;;;;;3.08;1.17;;;15.90;99.90;;;;;;5030511;28;20053;-65
2022/05/13 08:05:42;;;;;;;3.10;1.30;;;16.10;99.90;;;;;;5031100;28;20076;-63
2022/05/13 08:08:19;;;;;;;4.38;1.40;;;16.20;99.90;;;;;;5032512;28;20057;-64
2022/05/13 08:10:47;;;;;;;5.07;1.55;;;16.30;99.90;;;;;;5031191;28;20057;-63
2022/05/13 08:13:13;;;;;;;4.88;1.35;;;16.40;99.90;;;;;;5032416;28;20053;-63
2022/05/13 08:15:40;;;;;;;4.10;1.30;;;16.50;99.90;;;;;;5030248;28;20148;-63
2022/05/13 08:18:06;;;;;;;4.75;1.70;;;16.50;99.90;;;;;;5030929;28;20088;-64
2022/05/13 08:20:32;;;;;;;4.70;1.63;;;16.40;99.90;;;;;;5032454;28;20050;-63
2022/05/13 08:22:58;;;;;;;5.03;1.58;;;16.20;99.90;;;;;;5032169;28;20049;-63
2022/05/13 08:25:24;;;;;;;6.22;1.88;;;16.10;99.90;;;;;;5031510;28;20056;-63
2022/05/13 08:27:51;;;;;;;4.50;1.67;;;16.00;99.90;;;;;;5031127;28;20065;-64
2022/05/13 08:30:17;;;;;;;3.20;1.35;;;16.10;99.90;;;;;;5032156;28;20053;-64
2022/05/13 08:32:43;;;;;;;5.95;1.65;;;16.10;99.90;;;;;;5031702;28;20045;-64
2022/05/13 08:35:11;;;;;;;3.85;1.23;;;16.10;99.90;;;;;;5031118;28;20107;-63
2022/05/13 08:37:48;;;;;;;2.60;1.25;;;16.10;99.90;;;;;;5030726;28;20057;-65
2022/05/13 08:40:52;;;;;;;4.13;1.38;;;16.00;99.90;;;;;;5032212;28;20045;-64
2022/05/13 08:43:27;;;;;;;10.13;1.58;;;15.90;99.90;;;;;;5032042;28;20061;-64
2022/05/13 08:45:56;;;;;;;2.67;1.30;;;16.00;99.90;;;;;;5030361;28;20100;-64
2022/05/13 08:48:33;;;;;;;11.35;1.70;;;16.20;99.90;;;;;;5028988;28;20087;-64
2022/05/13 08:51:21;;;;;;;5.43;1.60;;;16.40;99.90;;;;;;5032061;28;20045;-64
2022/05/13 08:53:56;;;;;;;4.68;1.40;;;16.40;99.90;;;;;;5032862;28;20386;-65
2022/05/13 08:56:28;;;;;;;8.07;1.45;;;16.30;99.90;;;;;;5032662;28;20057;-63
2022/05/13 08:59:19;;;;;;;3.63;1.23;;;16.20;99.90;;;;;;5017924;28;20049;-63
2022/05/13 09:01:57;;;;;;;4.03;1.58;;;16.30;99.90;;;;;;5035598;28;20049;-64
2022/05/13 09:04:38;;;;;;;3.72;1.05;;;16.30;99.90;;;;;;5034389;28;20049;-64
2022/05/13 09:07:10;;;;;;;3.45;1.38;;;16.30;99.90;;;;;;5035763;28;20382;-65
2022/05/13 09:09:36;;;;;;;;;;;16.50;99.90;;;;;;5036290;28;20045;-63
2022/05/13 09:12:28;;;;;;;4.88;1.33;;;16.50;99.90;;;;;;5033618;28;19921;-65
2022/05/13 09:15:39;;;;;;;3.80;1.35;;;16.50;99.90;;;;;;5014753;28;20053;-64
2022/05/13 09:18:25;;;;;;;6.18;1.13;;;16.50;99.90;;;;;;5014618;28;20090;-64
2022/05/13 09:21:23;;;;;;;4.00;1.20;;;16.60;99.90;;;;;;5014302;28;20482;-65
2022/05/13 09:23:49;;;;;;;4.22;1.20;;;16.70;99.90;;;;;;5014476;28;20061;-63
2022/05/13 09:26:24;;;;;;;4.03;1.50;;;16.80;99.90;;;;;;5014388;28;20057;-64
2022/05/13 09:29:05;;;;;;;1.25;0.90;;;16.90;99.90;;;;;;5029093;28;20053;-65
2022/05/13 09:31:33;;;;;;;4.47;1.60;;;17.20;99.90;;;;;;5033789;28;20057;-63
2022/05/13 09:33:59;;;;;;;4.32;1.25;;;17.40;99.90;;;;;;5034232;28;20058;-64
2022/05/13 09:36:26;;;;;;;3.25;1.20;;;17.40;99.90;;;;;;5034285;28;20050;-64
2022/05/13 09:39:15;;;;;;;4.78;1.40;;;17.30;99.90;;;;;;5033192;28;20139;-63
2022/05/13 09:41:42;;;;;;;3.25;0.98;;;17.20;99.90;;;;;;5030529;28;20045;-65
2022/05/13 09:44:13;;;;;;;3.28;1.17;;;17.20;99.90;;;;;;5031931;28;20049;-65
2022/05/13 09:46:47;;;;;;;2.20;1.05;;;17.20;99.90;;;;;;5045534;28;20046;-64
2022/05/13 09:49:36;;;;;;;4.30;1.00;;;17.00;99.90;;;;;;5032950;28;20080;-64
2022/05/13 09:52:18;;;;;;;3.08;1.08;;;16.90;99.90;;;;;;5033350;28;20538;-64
2022/05/13 09:54:47;;;;;;;5.40;1.35;;;16.80;99.90;;;;;;5031426;28;20053;-65
2022/05/13 09:57:33;;;;;;;3.85;1.05;;;16.80;99.90;;;;;;5031095;28;20050;-63
2022/05/13 10:00:06;;;;;;;3.67;1.25;;;16.80;99.90;;;;;;5033164;28;20102;-63
2022/05/13 10:02:37;;;;;;;4.30;1.13;;;16.80;99.90;;;;;;5033837;28;20057;-64
2022/05/13 10:05:25;;;;;;;4.68;1.10;;;16.80;99.90;;;;;;5033716;28;20060;-63
2022/05/13 10:07:53;;;;;;;2.80;1.30;;;17.00;99.90;;;;;;5033680;28;20402;-63
2022/05/13 10:16:01;;;;;;;5.00;1.40;;;17.80;99.90;;;;;;5033341;28;20482;-66
2022/05/13 10:18:29;;;;;;;5.32;1.17;;;17.90;99.90;;;;;;5032391;28;20124;-65
2022/05/13 10:21:19;;;;;;;5.28;1.35;;;17.90;99.90;;;;;;5029487;28;20046;-64
2022/05/13 10:24:06;;;;;;;4.78;1.25;;;18.00;99.90;;;;;;5030249;28;20060;-65
2022/05/13 10:26:36;;;;;;;6.63;1.60;;;18.00;99.90;;;;;;5032065;28;20053;-63
2022/05/13 10:29:26;;;;;;;4.68;1.40;;;17.90;99.90;;;;;;5027571;28;20499;-64
2022/05/13 10:31:53;;;;;;;4.28;1.63;;;17.70;99.90;;;;;;5021540;28;20104;-66
2022/05/13 10:34:30;;;;;;;4.35;1.35;;;17.60;99.90;;;;;;5025497;28;20041;-65
2022/05/13 10:37:02;;;;;;;4.10;1.30;;;17.60;99.90;;;;;;5033133;28;20061;-63
2022/05/13 10:39:44;;;;;;;3.65;1.33;;;17.70;99.90;;;;;;5027795;28;20133;-63
2022/05/13 10:42:21;;;;;;;5.03;1.65;;;17.70;99.90;;;;;;5030739;28;20107;-64
2022/05/13 10:45:05;;;;;;;3.75;1.80;;;17.50;99.90;;;;;;5014916;28;20053;-64
2022/05/13 10:47:37;;;;;;;4.95;1.50;;;17.50;99.90;;;;;;5033242;28;20049;-64
2022/05/13 10:50:13;;;;;;;;;;;17.40;99.90;;;;;;5032879;28;20045;-63
2022/05/13 10:52:48;;;;;;;2.90;1.20;;;17.30;99.90;;;;;;5029758;28;19921;-64
2022/05/13 10:55:29;;;;;;;6.88;1.38;;;17.30;99.90;;;;;;5034146;28;20057;-63
2022/05/13 10:58:33;;;;;;;2.92;1.55;;;17.30;99.90;;;;;;5030732;28;20045;-65
2022/05/13 11:01:11;;;;;;;7.43;1.70;;;17.20;99.90;;;;;;5031282;28;20061;-64
2022/05/13 11:03:59;;;;;;;6.88;2.00;;;17.10;99.90;;;;;;5013376;28;20555;-66
2022/05/13 11:06:52;;;;;;;4.75;1.38;;;17.00;99.90;;;;;;5025230;28;20088;-64
2022/05/13 11:09:24;;;;;;;;;;;17.00;99.90;;;;;;5030395;28;20061;-66
2022/05/13 11:11:54;;;;;;;5.85;1.27;;;16.90;99.90;;;;;;5033435;28;19921;-64
2022/05/13 11:14:44;;;;;;;4.82;1.58;;;16.80;99.90;;;;;;5033207;28;20426;-65
2022/05/13 11:17:42;;;;;;;4.68;1.50;;;16.70;99.90;;;;;;5032341;28;20045;-65
2022/05/13 11:20:19;;;;;;;3.03;1.17;;;17.00;99.90;;;;;;5025443;28;20061;-64
2022/05/13 11:23:07;;;;;;;4.10;1.33;;;17.30;99.90;;;;;;5029752;28;20050;-65
2022/05/13 11:25:57;;;;;;;4.32;1.38;;;17.40;99.90;;;;;;5030658;28;20057;-63
2022/05/13 11:28:26;;;;;;;4.40;1.30;;;17.50;99.90;;;;;;5030584;28;20060;-64
2022/05/13 11:31:11;;;;;;;3.45;1.42;;;17.60;99.90;;;;;;5028184;28;20061;-64
2022/05/13 11:33:45;;;;;;;3.53;1.48;;;17.50;99.90;;;;;;5029923;28;20054;-64
2022/05/13 11:36:50;;;;;;;4.43;1.52;;;17.40;99.90;;;;;;5032286;28;20060;-63
2022/05/13 11:39:40;;;;;;;3.33;1.40;;;17.30;99.90;;;;;;5030841;28;20124;-65
2022/05/13 11:42:22;;;;;;;5.15;1.65;;;17.50;99.90;;;;;;5030981;28;20128;-65
2022/05/13 11:44:50;;;;;;;;;;;17.50;99.90;;;;;;5031897;28;20120;-63
2022/05/13 11:47:24;;;;;;;4.80;1.38;;;17.50;99.90;;;;;;5030781;28;20384;-64
2022/05/13 11:49:51;;;;;;;4.25;1.58;;;17.50;99.90;;;;;;5031624;28;20096;-64
2022/05/13 11:52:49;;;;;;;4.05;1.30;;;17.40;99.90;;;;;;5031473;28;20505;-63
2022/05/13 11:55:29;;;;;;;4.47;1.50;;;17.30;99.90;;;;;;5020597;28;20092;-65
2022/05/13 11:57:55;;;;;;;5.25;1.42;;;17.20;99.90;;;;;;5032855;28;20050;-64
2022/05/13 12:00:40;;;;;;;5.18;1.23;;;17.20;99.90;;;;;;5031484;28;20090;-64
2022/05/13 12:03:08;;;;;;;3.30;1.13;;;17.20;99.90;;;;;;5024174;28;20053;-64
2022/05/13 12:06:02;;;;;;;4.78;1.40;;;17.30;99.90;;;;;;5030840;28;20175;-64
2022/05/13 12:08:38;;;;;;;4.47;1.45;;;17.40;99.90;;;;;;5028022;28;20052;-66
2022/05/13 12:11:28;;;;;;;7.13;1.40;;;17.30;99.90;;;;;;5030344;28;20089;-66
2022/05/13 12:14:04;;;;;;;4.72;1.70;;;17.30;99.90;;;;;;5031508;28;20060;-64
2022/05/13 12:16:40;;;;;;;4.05;1.67;;;17.50;99.90;;;;;;5028390;28;20416;-65
2022/05/13 12:19:39;;;;;;;4.50;1.30;;;17.70;99.70;;;;;;5030904;28;20392;-65
2022/05/13 12:22:37;;;;;;;6.15;1.63;;;17.60;99.60;;;;;;5029059;28;20469;-67
2022/05/13 12:25:07;;;;;;;4.47;1.48;;;17.50;96.70;;;;;;5030160;28;20099;-65
2022/05/13 12:27:45;;;;;;;3.00;1.20;;;17.30;99.90;;;;;;5029838;28;20057;-65
2022/05/13 12:30:37;;;;;;;3.95;1.20;;;17.30;99.90;;;;;;5032505;28;20053;-65
2022/05/13 12:33:17;;;;;;;3.67;1.30;;;17.30;99.90;;;;;;5034742;28;20057;-65
2022/05/13 12:38:31;;;;;;;2.92;1.50;;;17.40;99.90;;;;;;5036265;28;20041;-64
2022/05/13 12:41:17;;;;;;;2.42;1.20;;;17.60;99.90;;;;;;5035214;28;20122;-65
2022/05/13 12:44:06;;;;;;;3.30;1.30;;;17.90;92.20;;;;;;5016666;28;20057;-64
2022/05/13 12:46:49;;;;;;;4.30;1.40;;;18.00;93.70;;;;;;5016081;28;20084;-66
2022/05/13 12:49:19;;;;;;;5.78;1.33;;;18.20;92.90;;;;;;5015134;28;20482;-64
2022/05/13 12:51:53;;;;;;;3.10;1.58;;;18.50;92.60;;;;;;5031585;28;20084;-64
2022/05/13 12:54:21;;;;;;;4.70;1.30;;;18.60;87.30;;;;;;5015911;28;20088;-65
2022/05/13 12:56:52;;;;;;;3.78;1.38;;;18.70;83.60;;;;;;5030025;28;20223;-65
2022/05/13 12:59:26;;;;;;;5.80;1.58;;;18.80;77.30;;;;;;5033216;28;20421;-66
2022/05/13 13:01:57;;;;;;;2.53;1.30;;;18.80;82.70;;;;;;5031925;28;20053;-65
2022/05/13 13:04:25;;;;;;;7.05;1.98;;;18.90;81.00;;;;;;5034303;28;20091;-65
2022/05/13 13:06:52;;;;;;;3.75;1.30;;;19.10;84.20;;;;;;5034106;28;20056;-64
2022/05/13 13:09:44;;;;;;;5.25;1.65;;;19.30;77.00;;;;;;5035433;28;20095;-64
2022/05/13 13:12:25;;;;;;;4.53;1.90;;;19.30;83.50;;;;;;5035120;28;20402;-67
2022/05/13 13:15:03;;;;;;;6.07;1.63;;;19.10;75.40;;;;;;5035488;28;20132;-65
2022/05/13 13:17:49;;;;;;;3.60;1.23;;;19.00;76.00;;;;;;5033440;28;20111;-64
2022/05/13 13:20:18;;;;;;;3.20;1.30;;;18.70;72.30;;;;;;5034942;28;20045;-64
2022/05/13 13:22:50;;;;;;;4.55;1.40;;;18.60;79.00;;;;;;5033802;28;20056;-65
2022/05/13 13:25:42;;;;;;;6.57;1.60;;;18.40;74.30;;;;;;5033036;28;20129;-64
2022/05/13 13:28:32;;;;;;;4.30;1.40;;;18.50;77.10;;;;;;5033551;28;20106;-64
2022/05/13 13:31:01;;;;;;;7.05;1.52;;;18.70;79.00;;;;;;5033580;28;20623;-65